Time;durP1;ratioP1;P1;durP2;ratioP2;P2;SDS_P1;SDS_P2;PMS_P1;PMS_P2;Temp;Humidity;BMP_temperature;BMP_pressure;BME280_temperature;BME280_humidity;BME280_pressure;Samples;Min_cycle;Max_cycle;Signal;HPM_P1;HPM_P2
2023/07/20 00:02:14;;;;;;;1.55;1.10;;;;;;;19.64;48.40;97085.94;5924387;23;20173;-79
2023/07/20 00:04:39;;;;;;;3.30;1.40;;;;;;;19.63;49.03;97095.69;5907069;23;20439;-79
2023/07/20 00:07:05;;;;;;;3.63;1.55;;;;;;;19.59;49.10;97091.34;5898282;23;20162;-79
2023/07/20 00:09:31;;;;;;;1.77;1.23;;;;;;;19.55;49.51;97098.31;5898466;23;20160;-79
2023/07/20 00:12:00;;;;;;;3.80;1.63;;;;;;;19.47;49.50;97094.56;6031014;23;20329;-79
2023/07/20 00:14:26;;;;;;;2.58;1.35;;;;;;;19.41;49.76;97098.41;5898184;23;20189;-79
2023/07/20 00:16:55;;;;;;;2.00;1.20;;;;;;;19.38;49.24;97088.44;5971236;23;20004;-79
2023/07/20 00:19:27;;;;;;;2.67;1.30;;;;;;;19.39;50.32;97101.34;5905945;23;20179;-79
2023/07/20 00:21:54;;;;;;;1.98;1.27;;;;;;;19.25;50.25;97103.31;5908279;23;20230;-79
2023/07/20 00:24:20;;;;;;;2.25;1.10;;;;;;;19.26;49.74;97094.28;5907798;23;20203;-79
2023/07/20 00:26:45;;;;;;;1.38;0.95;;;;;;;19.26;50.05;97092.44;5898845;23;20413;-79
2023/07/20 00:29:11;;;;;;;2.42;1.30;;;;;;;19.23;50.15;97093.03;5907024;23;20378;-79
2023/07/20 00:31:37;;;;;;;2.15;1.30;;;;;;;19.18;49.77;97095.81;5898942;23;20175;-79
2023/07/20 00:34:06;;;;;;;2.28;1.33;;;;;;;19.19;50.13;97105.31;5876740;23;20195;-78
2023/07/20 00:36:32;;;;;;;2.92;1.45;;;;;;;19.06;49.88;97101.63;5908714;23;20387;-79
2023/07/20 00:38:57;;;;;;;2.75;1.40;;;;;;;19.03;50.50;97101.47;5875563;23;20337;-79
2023/07/20 00:41:23;;;;;;;1.90;1.60;;;;;;;18.99;50.61;97113.72;5909559;23;20373;-79
2023/07/20 00:43:50;;;;;;;2.67;2.00;;;;;;;18.90;50.92;97101.22;5898339;23;20258;-79
2023/07/20 00:46:16;;;;;;;2.75;1.30;;;;;;;18.83;51.42;97108.78;6005165;23;20288;-79
2023/07/20 00:48:42;;;;;;;2.22;1.45;;;;;;;18.81;50.98;97097.69;5875346;23;20376;-79
2023/07/20 00:51:08;;;;;;;1.30;1.20;;;;;;;18.84;50.63;97097.13;5908009;23;20152;-79
2023/07/20 00:53:33;;;;;;;2.05;1.30;;;;;;;18.79;50.99;97089.31;5973436;23;20231;-79
2023/07/20 00:55:59;;;;;;;1.27;1.17;;;;;;;18.78;51.07;97097.53;6021919;23;20441;-79
2023/07/20 00:58:24;;;;;;;2.47;1.42;;;;;;;18.68;51.69;97101.19;5907082;23;20366;-79
2023/07/20 01:00:50;;;;;;;1.75;1.10;;;;;;;18.58;52.31;97093.50;5909110;23;20402;-79
2023/07/20 01:03:16;;;;;;;2.00;1.27;;;;;;;18.61;51.98;97103.44;5915758;23;20331;-78
2023/07/20 01:05:56;;;;;;;1.85;1.30;;;;;;;18.72;52.16;97102.16;6008146;23;20318;-78
2023/07/20 01:09:09;;;;;;;2.58;1.40;;;;;;;18.67;52.04;97097.75;6034646;23;20206;-78
2023/07/20 01:11:50;;;;;;;2.40;1.27;;;;;;;18.61;52.40;97095.53;5969566;23;20154;-78
2023/07/20 01:14:16;;;;;;;3.35;1.65;;;;;;;18.54;52.66;97098.56;6055689;23;20178;-77
2023/07/20 01:16:45;;;;;;;1.55;1.17;;;;;;;18.45;52.59;97089.81;5975592;23;20194;-77
2023/07/20 01:19:19;;;;;;;2.72;1.50;;;;;;;18.34;53.22;97099.81;6001822;23;20336;-78
2023/07/20 01:22:00;;;;;;;1.63;1.40;;;;;;;18.34;52.80;97097.94;6010647;23;20540;-78
2023/07/20 01:24:34;;;;;;;1.38;1.27;;;;;;;18.29;53.27;97102.56;5999730;23;20159;-78
2023/07/20 01:27:18;;;;;;;2.35;1.40;;;;;;;18.20;53.21;97099.03;6000224;23;20124;-77
2023/07/20 01:30:21;;;;;;;1.70;1.33;;;;;;;18.08;53.79;97096.94;6024280;23;20229;-77
2023/07/20 01:32:48;;;;;;;3.15;1.50;;;;;;;17.93;53.60;97093.53;6024734;23;20253;-77
2023/07/20 01:35:14;;;;;;;1.50;1.35;;;;;;;17.90;53.72;97091.47;6060455;23;20131;-77
2023/07/20 01:37:42;;;;;;;2.03;1.40;;;;;;;17.83;54.52;97082.38;6009874;23;20257;-78
2023/07/20 01:40:08;;;;;;;2.40;1.50;;;;;;;17.81;54.54;97077.41;6032883;23;20105;-77
2023/07/20 01:42:34;;;;;;;2.40;1.45;;;;;;;17.57;56.04;97082.88;6000511;23;20261;-78
2023/07/20 01:44:59;;;;;;;1.88;1.20;;;;;;;17.40;55.92;97083.44;5976212;23;20363;-77
2023/07/20 01:47:25;;;;;;;2.22;1.30;;;;;;;17.36;55.62;97077.97;6010814;23;20309;-78
2023/07/20 01:49:50;;;;;;;2.15;1.48;;;;;;;17.29;56.23;97077.56;6000027;23;20210;-77
2023/07/20 01:52:15;;;;;;;1.73;1.60;;;;;;;17.25;56.94;97081.06;6001156;23;20229;-77
2023/07/20 01:54:41;;;;;;;1.85;1.33;;;;;;;17.21;56.04;97079.00;5976958;23;20395;-78
2023/07/20 01:57:06;;;;;;;3.22;1.58;;;;;;;17.15;56.68;97072.28;6058838;23;20173;-77
2023/07/20 01:59:32;;;;;;;2.70;1.55;;;;;;;17.12;56.24;97074.69;6035283;23;20162;-78
2023/07/20 02:01:57;;;;;;;2.75;1.33;;;;;;;17.13;56.25;97073.63;6011007;23;20159;-78
2023/07/20 02:04:23;;;;;;;1.80;1.10;;;;;;;17.13;56.16;97073.63;6025390;23;20141;-77
2023/07/20 02:06:48;;;;;;;1.60;1.23;;;;;;;17.08;55.59;97073.72;5976974;23;20277;-77
2023/07/20 02:09:13;;;;;;;2.05;1.20;;;;;;;17.13;55.81;97078.88;6033755;23;20310;-77
2023/07/20 02:11:39;;;;;;;2.42;1.30;;;;;;;17.06;55.55;97070.59;6010622;23;20474;-78
2023/07/20 02:14:04;;;;;;;3.30;1.45;;;;;;;16.99;56.34;97070.97;6009510;23;20241;-78
2023/07/20 02:16:30;;;;;;;2.63;1.40;;;;;;;16.95;56.33;97077.88;5975794;23;20147;-77
2023/07/20 02:18:56;;;;;;;1.83;1.42;;;;;;;16.90;56.63;97072.69;6010019;23;20583;-77
2023/07/20 02:21:22;;;;;;;1.98;1.55;;;;;;;16.83;57.48;97070.41;6032886;23;20391;-78
2023/07/20 02:23:48;;;;;;;2.50;1.48;;;;;;;16.82;57.19;97068.84;6009119;23;20182;-78
2023/07/20 02:26:13;;;;;;;2.50;1.90;;;;;;;16.87;56.92;97092.44;6033091;23;20216;-77
2023/07/20 02:28:38;;;;;;;1.60;1.48;;;;;;;16.82;57.37;97090.63;6009380;23;20334;-78
2023/07/20 02:31:04;;;;;;;2.80;1.95;;;;;;;16.69;57.40;97090.59;6008459;23;20379;-77
2023/07/20 02:33:29;;;;;;;2.35;1.42;;;;;;;16.62;57.52;97089.13;5976147;23;20230;-77
2023/07/20 02:35:55;;;;;;;1.95;1.30;;;;;;;16.61;57.40;97089.41;6057791;23;20181;-77
2023/07/20 02:38:20;;;;;;;3.28;1.90;;;;;;;16.66;57.51;97086.69;6000040;23;20152;-77
2023/07/20 02:40:46;;;;;;;2.38;1.55;;;;;;;16.74;57.09;97093.13;5999153;23;20265;-77
2023/07/20 02:43:11;;;;;;;2.03;1.35;;;;;;;16.76;57.74;97098.88;6000832;23;20224;-77
2023/07/20 02:45:40;;;;;;;2.17;1.25;;;;;;;16.74;57.12;97093.94;6062099;23;20352;-77
2023/07/20 02:48:07;;;;;;;2.58;1.45;;;;;;;16.65;57.74;97088.53;6034782;23;20182;-78
2023/07/20 02:50:34;;;;;;;1.83;1.40;;;;;;;16.61;58.54;97095.44;6034492;23;20344;-77
2023/07/20 02:53:00;;;;;;;1.70;1.33;;;;;;;16.59;58.06;97094.16;6060886;23;20174;-78
2023/07/20 02:55:25;;;;;;;1.70;1.33;;;;;;;16.54;58.56;97096.88;5975313;23;20331;-78
2023/07/20 02:57:51;;;;;;;2.45;1.65;;;;;;;16.46;59.28;97085.13;6024390;23;20198;-77
2023/07/20 03:00:16;;;;;;;2.20;1.70;;;;;;;16.52;58.90;97085.84;5999698;23;20056;-77
2023/07/20 03:02:42;;;;;;;2.60;1.45;;;;;;;16.54;59.16;97087.13;6059338;23;20190;-77
2023/07/20 03:05:08;;;;;;;3.17;2.10;;;;;;;16.58;58.91;97090.72;6034512;23;20280;-78
2023/07/20 03:07:33;;;;;;;3.38;1.77;;;;;;;16.60;58.87;97101.75;5976672;23;20143;-78
2023/07/20 03:09:59;;;;;;;3.35;1.60;;;;;;;16.63;59.04;97097.78;6060039;23;20176;-78
2023/07/20 03:12:24;;;;;;;4.00;1.50;;;;;;;16.69;58.86;97104.53;6035192;23;20204;-77
2023/07/20 03:14:50;;;;;;;2.05;1.40;;;;;;;16.75;58.55;97102.59;6034322;23;20371;-77
2023/07/20 03:17:15;;;;;;;2.33;1.67;;;;;;;16.83;59.49;97097.47;6010243;23;20183;-77
2023/07/20 03:19:41;;;;;;;3.58;2.00;;;;;;;16.88;59.57;97094.03;6024550;23;20172;-77
2023/07/20 03:22:06;;;;;;;2.55;1.70;;;;;;;16.93;59.38;97088.69;6034238;23;20178;-78
2023/07/20 03:24:32;;;;;;;2.25;1.40;;;;;;;17.02;59.32;97088.81;5978178;23;20229;-78
2023/07/20 03:26:58;;;;;;;2.95;1.60;;;;;;;17.10;59.80;97090.78;5977318;23;20405;-77
2023/07/20 03:29:23;;;;;;;2.40;1.60;;;;;;;17.14;59.65;97090.97;6011083;23;20186;-78
2023/07/20 03:31:50;;;;;;;2.42;1.58;;;;;;;17.23;59.60;97099.75;6002872;23;20185;-79
2023/07/20 03:34:15;;;;;;;3.05;1.58;;;;;;;17.31;59.53;97093.06;6012083;23;20254;-79
2023/07/20 03:36:41;;;;;;;2.42;1.60;;;;;;;17.23;59.16;97083.97;6002074;23;20078;-77
2023/07/20 03:39:06;;;;;;;2.97;1.67;;;;;;;17.38;58.36;97107.41;6057416;23;20258;-77
2023/07/20 03:41:32;;;;;;;1.73;1.50;;;;;;;17.31;57.58;97099.09;6011293;23;20390;-78
2023/07/20 03:43:57;;;;;;;3.58;1.58;;;;;;;17.32;57.49;97110.41;5979095;23;20163;-78
2023/07/20 03:46:23;;;;;;;1.52;1.42;;;;;;;17.26;57.47;97104.47;6001600;23;20405;-78
2023/07/20 03:48:48;;;;;;;2.70;1.40;;;;;;;17.19;58.07;97089.03;6012534;23;20222;-78
2023/07/20 03:51:13;;;;;;;3.20;1.80;;;;;;;17.22;58.15;97109.53;6003447;23;20273;-78
2023/07/20 03:53:39;;;;;;;2.13;1.60;;;;;;;17.21;58.73;97099.28;5978607;23;20175;-78
2023/07/20 03:56:04;;;;;;;2.72;1.77;;;;;;;17.26;59.03;97103.69;6063638;23;20423;-78
2023/07/20 03:58:32;;;;;;;3.60;1.92;;;;;;;17.28;59.34;97106.81;6012768;23;20214;-78
2023/07/20 04:00:58;;;;;;;2.97;1.88;;;;;;;17.30;59.50;97108.06;6026265;23;20462;-79
2023/07/20 04:03:24;;;;;;;1.73;1.35;;;;;;;17.36;59.02;97108.78;5979018;23;20014;-78
2023/07/20 04:05:50;;;;;;;4.18;1.90;;;;;;;17.34;59.11;97098.53;5979229;23;20190;-78
2023/07/20 04:08:15;;;;;;;2.03;1.58;;;;;;;17.38;57.64;97101.38;6003264;23;20307;-78
2023/07/20 04:10:44;;;;;;;2.60;1.60;;;;;;;17.50;57.65;97111.44;6012967;23;20261;-79
2023/07/20 04:13:10;;;;;;;3.38;1.40;;;;;;;17.55;57.15;97113.97;6036201;23;20186;-79
2023/07/20 04:15:35;;;;;;;1.83;1.60;;;;;;;17.53;57.18;97118.72;6035801;23;20170;-78
2023/07/20 04:18:00;;;;;;;4.15;1.77;;;;;;;17.50;57.01;97111.44;6001761;23;20148;-78
2023/07/20 04:20:26;;;;;;;2.22;1.42;;;;;;;17.51;57.06;97111.13;6035478;23;20375;-78
2023/07/20 04:22:55;;;;;;;2.25;1.58;;;;;;;17.65;56.21;97113.78;6002653;23;20053;-78
2023/07/20 04:25:20;;;;;;;3.15;1.50;;;;;;;17.69;56.70;97116.63;6001957;23;20270;-79
2023/07/20 04:27:46;;;;;;;3.20;1.70;;;;;;;17.70;57.02;97116.31;5976497;23;20269;-78
2023/07/20 04:30:11;;;;;;;3.22;1.50;;;;;;;17.77;57.15;97121.22;5999782;23;20475;-79
2023/07/20 04:32:38;;;;;;;2.58;1.90;;;;;;;17.83;56.92;97106.84;5978645;23;20190;-80
2023/07/20 04:35:09;;;;;;;2.88;1.95;;;;;;;17.91;57.18;97108.06;6011439;23;20116;-78
2023/07/20 04:37:35;;;;;;;4.25;2.25;;;;;;;17.88;57.69;97109.41;5979703;23;20258;-78
2023/07/20 04:40:01;;;;;;;3.22;1.60;;;;;;;17.90;57.17;97119.66;6035647;23;20221;-80
2023/07/20 04:42:26;;;;;;;2.50;1.70;;;;;;;17.83;57.46;97108.72;6002304;23;20198;-78
2023/07/20 04:44:52;;;;;;;1.55;1.45;;;;;;;17.83;57.56;97106.09;6036729;23;20511;-78
2023/07/20 04:47:17;;;;;;;3.00;1.73;;;;;;;17.98;57.08;97116.34;5978342;23;20370;-78
2023/07/20 04:49:43;;;;;;;2.75;1.88;;;;;;;18.08;57.03;97113.53;6051100;23;20286;-78
2023/07/20 04:52:08;;;;;;;3.47;2.05;;;;;;;18.11;56.47;97110.31;6060194;23;20350;-79
2023/07/20 04:54:33;;;;;;;1.85;1.73;;;;;;;18.19;56.61;97103.53;6002163;23;20525;-80
2023/07/20 04:56:59;;;;;;;2.70;1.75;;;;;;;18.19;56.38;97102.78;6011609;23;20165;-79
2023/07/20 04:59:24;;;;;;;2.85;2.13;;;;;;;18.23;56.00;97099.25;6001929;23;20186;-79
2023/07/20 05:01:50;;;;;;;2.53;1.58;;;;;;;18.30;56.17;97104.91;6012466;23;20266;-79
2023/07/20 05:04:15;;;;;;;3.97;1.63;;;;;;;18.28;55.95;97095.72;6027805;23;20298;-78
2023/07/20 05:06:41;;;;;;;3.75;2.13;;;;;;;18.33;55.18;97109.59;6002120;23;20317;-78
2023/07/20 05:09:08;;;;;;;2.97;1.30;;;;;;;18.27;55.42;97104.72;6000821;23;20328;-78
2023/07/20 05:11:33;;;;;;;2.60;1.70;;;;;;;18.35;55.58;97111.91;6036165;23;20192;-79
2023/07/20 05:14:00;;;;;;;2.38;2.17;;;;;;;18.35;55.30;97106.63;5979673;23;20391;-79
2023/07/20 05:16:25;;;;;;;3.00;1.60;;;;;;;18.36;55.35;97116.09;6027121;23;20332;-79
2023/07/20 05:18:51;;;;;;;4.53;1.90;;;;;;;18.43;55.09;97121.75;6026158;23;20148;-79
2023/07/20 05:21:16;;;;;;;4.10;1.80;;;;;;;18.47;55.45;97109.56;6003592;23;20287;-78
2023/07/20 05:23:42;;;;;;;2.40;1.85;;;;;;;18.57;55.41;97110.41;5978912;23;20179;-78
2023/07/20 05:26:08;;;;;;;2.33;1.55;;;;;;;18.51;55.22;97105.25;6003106;23;20339;-78
2023/07/20 05:28:33;;;;;;;2.78;1.77;;;;;;;18.56;55.09;97108.81;5978816;23;20477;-78
2023/07/20 05:30:59;;;;;;;3.10;1.88;;;;;;;18.69;54.37;97115.91;5977856;23;20265;-78
2023/07/20 05:33:24;;;;;;;2.47;1.73;;;;;;;18.77;54.66;97114.44;6001974;23;20317;-78
2023/07/20 05:35:50;;;;;;;3.72;1.83;;;;;;;18.84;54.74;97112.19;6036430;23;20102;-78
2023/07/20 05:38:15;;;;;;;4.88;2.33;;;;;;;18.90;55.05;97114.41;6011543;23;20057;-81
2023/07/20 05:40:42;;;;;;;4.90;2.30;;;;;;;18.97;55.33;97114.00;5978077;23;20227;-80
2023/07/20 05:43:08;;;;;;;3.03;1.88;;;;;;;19.06;55.50;97114.06;5978287;23;20254;-78
2023/07/20 05:45:33;;;;;;;2.00;1.52;;;;;;;19.16;54.34;97108.53;5978405;23;20341;-79
2023/07/20 05:47:59;;;;;;;3.08;1.90;;;;;;;19.32;54.02;97116.84;6002315;23;20174;-78
2023/07/20 05:50:24;;;;;;;3.10;2.10;;;;;;;19.35;54.03;97115.47;6034206;23;20108;-79
2023/07/20 05:52:52;;;;;;;3.45;1.90;;;;;;;19.49;53.47;97110.88;5977417;23;20269;-79
2023/07/20 05:55:18;;;;;;;2.05;1.60;;;;;;;19.61;54.22;97113.72;6003399;23;20290;-79
2023/07/20 05:57:43;;;;;;;3.58;2.40;;;;;;;19.70;53.67;97105.06;5985272;23;20041;-84
2023/07/20 06:00:10;;;;;;;2.38;1.80;;;;;;;19.79;53.42;97125.19;6005016;23;20273;-79
2023/07/20 06:02:35;;;;;;;3.38;1.85;;;;;;;19.81;53.52;97119.59;6027442;23;20368;-78
2023/07/20 06:05:01;;;;;;;3.80;2.50;;;;;;;19.87;52.97;97126.28;6012849;23;20471;-79
2023/07/20 06:07:26;;;;;;;2.38;1.80;;;;;;;19.95;52.81;97122.91;6002866;23;20337;-80
2023/07/20 06:09:52;;;;;;;1.73;1.52;;;;;;;20.00;52.45;97114.81;6002554;23;20006;-81
2023/07/20 06:12:17;;;;;;;2.85;2.00;;;;;;;20.17;52.20;97126.53;6003035;23;20339;-80
2023/07/20 06:14:43;;;;;;;2.20;1.83;;;;;;;20.24;52.67;97134.78;6002421;23;20466;-80
2023/07/20 06:17:08;;;;;;;2.55;1.92;;;;;;;20.30;52.13;97130.91;6012174;23;20392;-80
2023/07/20 06:19:34;;;;;;;3.05;1.90;;;;;;;20.43;52.07;97141.69;5980282;23;20139;-81
2023/07/20 06:21:59;;;;;;;2.72;1.80;;;;;;;20.54;51.69;97143.69;6036471;23;20238;-80
2023/07/20 06:24:25;;;;;;;2.33;1.73;;;;;;;20.62;51.46;97133.44;6004274;23;20194;-81
2023/07/20 06:26:51;;;;;;;3.25;1.70;;;;;;;20.76;51.19;97134.09;6037841;23;20148;-80
2023/07/20 06:29:16;;;;;;;2.10;1.90;;;;;;;21.01;51.17;97140.47;5979331;23;20261;-80
2023/07/20 06:31:42;;;;;;;4.13;1.90;;;;;;;21.26;50.44;97141.50;6002851;23;20226;-80
2023/07/20 06:34:07;;;;;;;4.35;2.28;;;;;;;21.37;49.93;97135.88;6002704;23;20117;-80
2023/07/20 06:36:32;;;;;;;3.53;2.05;;;;;;;21.46;50.01;97126.84;6012928;23;20307;-81
2023/07/20 06:38:58;;;;;;;2.28;1.75;;;;;;;21.67;49.45;97136.78;6025773;23;20335;-80
2023/07/20 06:41:23;;;;;;;3.17;2.03;;;;;;;21.74;49.30;97123.78;5979735;23;20372;-82
2023/07/20 06:43:50;;;;;;;4.25;2.20;;;;;;;21.91;49.23;97125.59;6012622;23;20188;-80
2023/07/20 06:46:15;;;;;;;2.97;2.10;;;;;;;22.00;47.95;97130.84;6036117;23;20252;-81
2023/07/20 06:48:41;;;;;;;2.55;1.73;;;;;;;22.05;48.22;97123.50;6026440;23;20177;-80
2023/07/20 06:51:06;;;;;;;3.20;1.80;;;;;;;22.20;48.76;97127.47;6001948;23;20245;-80
2023/07/20 06:53:32;;;;;;;1.95;1.70;;;;;;;22.40;47.64;97125.22;6003140;23;20159;-80
2023/07/20 06:55:58;;;;;;;2.55;1.70;;;;;;;22.50;47.61;97127.47;5977648;23;20061;-80
2023/07/20 06:58:24;;;;;;;2.30;1.73;;;;;;;22.79;47.27;97133.78;6036483;23;20261;-79
2023/07/20 07:00:52;;;;;;;2.67;2.15;;;;;;;22.94;46.91;97127.88;6002030;23;20434;-79
2023/07/20 07:03:17;;;;;;;2.10;1.90;;;;;;;22.96;46.80;97127.56;6032933;23;20214;-80
2023/07/20 07:05:45;;;;;;;2.63;2.13;;;;;;;23.13;46.17;97116.84;6014199;23;20198;-80
2023/07/20 07:08:11;;;;;;;4.32;1.73;;;;;;;23.33;45.96;97125.06;6037924;23;20182;-81
2023/07/20 07:10:37;;;;;;;2.58;2.00;;;;;;;23.55;45.40;97121.22;6002432;23;20181;-80
2023/07/20 07:13:03;;;;;;;2.22;1.60;;;;;;;23.69;44.20;97131.53;5980046;23;20536;-81
2023/07/20 07:15:29;;;;;;;2.78;1.73;;;;;;;23.65;44.16;97120.81;6003674;23;20608;-79
2023/07/20 07:17:54;;;;;;;3.25;1.60;;;;;;;23.59;44.74;97132.75;5980499;23;20178;-79
2023/07/20 07:20:20;;;;;;;3.30;1.40;;;;;;;23.84;43.63;97130.16;5980201;23;20159;-80
2023/07/20 07:22:46;;;;;;;2.38;1.52;;;;;;;23.78;43.71;97123.47;6061662;23;20273;-80
2023/07/20 07:25:12;;;;;;;2.58;1.65;;;;;;;23.94;42.25;97116.41;6042518;23;20304;-82
2023/07/20 07:27:38;;;;;;;2.90;1.55;;;;;;;23.70;42.37;97127.75;5984638;23;20170;-80
2023/07/20 07:30:04;;;;;;;2.42;1.55;;;;;;;23.68;41.50;97114.81;6009973;23;20171;-81
2023/07/20 07:32:30;;;;;;;2.25;1.27;;;;;;;23.65;42.47;97120.03;5982184;23;20503;-82
2023/07/20 07:34:58;;;;;;;1.52;1.30;;;;;;;23.50;42.10;97110.81;6005821;23;20169;-78
2023/07/20 07:37:23;;;;;;;2.30;1.40;;;;;;;23.66;41.89;97126.88;5985212;23;20253;-81
2023/07/20 07:39:49;;;;;;;2.63;1.40;;;;;;;23.62;42.20;97132.09;6006039;23;20225;-79
2023/07/20 07:42:14;;;;;;;2.92;1.23;;;;;;;23.78;41.60;97118.91;6037430;23;20182;-80
2023/07/20 07:44:40;;;;;;;2.78;1.50;;;;;;;23.84;41.87;97127.50;6014239;23;20171;-79
2023/07/20 07:47:05;;;;;;;2.25;1.20;;;;;;;23.95;40.84;97125.16;5981648;23;20408;-80
2023/07/20 07:49:31;;;;;;;2.92;1.45;;;;;;;24.15;40.41;97128.81;6003047;23;20350;-80
2023/07/20 07:51:57;;;;;;;2.78;1.65;;;;;;;24.12;40.75;97125.69;6013288;23;20286;-80
2023/07/20 07:54:22;;;;;;;2.88;1.63;;;;;;;24.27;40.76;97134.13;6038110;23;20471;-81
2023/07/20 07:56:48;;;;;;;2.40;1.50;;;;;;;24.30;40.30;97128.91;5983572;23;20375;-82
2023/07/20 07:59:13;;;;;;;3.63;1.50;;;;;;;24.49;40.07;97130.19;6013136;23;20182;-80
2023/07/20 08:01:39;;;;;;;1.63;1.40;;;;;;;24.64;39.24;97123.41;6002982;23;20638;-79
2023/07/20 08:04:04;;;;;;;2.67;1.70;;;;;;;24.69;40.22;97128.50;6003568;23;20235;-80
2023/07/20 08:06:29;;;;;;;2.20;1.55;;;;;;;25.01;40.20;97133.94;6036254;23;20273;-80
2023/07/20 08:08:55;;;;;;;1.80;1.50;;;;;;;25.18;38.44;97127.53;6039216;23;20075;-81
2023/07/20 08:11:20;;;;;;;2.15;1.48;;;;;;;25.37;38.83;97127.66;6008900;23;20515;-80
2023/07/20 08:13:46;;;;;;;2.50;1.38;;;;;;;25.50;39.09;97128.38;6007971;23;20166;-80
2023/07/20 08:16:11;;;;;;;1.48;1.27;;;;;;;25.65;38.30;97128.72;6014153;23;20870;-79
2023/07/20 08:18:37;;;;;;;2.33;1.30;;;;;;;25.64;37.55;97138.59;5985476;23;20306;-82
2023/07/20 08:21:03;;;;;;;1.25;1.15;;;;;;;25.74;37.67;97132.00;6002603;23;20377;-80
2023/07/20 08:23:28;;;;;;;2.17;1.70;;;;;;;25.67;38.16;97131.81;6005170;23;20324;-80
2023/07/20 08:25:54;;;;;;;1.58;1.25;;;;;;;25.91;37.63;97136.97;6038279;23;20241;-81
2023/07/20 08:28:19;;;;;;;2.03;1.48;;;;;;;25.97;36.93;97138.25;6006542;23;20075;-81
2023/07/20 08:30:47;;;;;;;1.38;1.13;;;;;;;25.96;37.43;97134.06;6039483;23;20163;-80
2023/07/20 08:33:19;;;;;;;1.83;1.40;;;;;;;26.23;36.50;97128.94;5978414;23;20190;-80
2023/07/20 08:35:44;;;;;;;1.60;1.50;;;;;;;26.45;36.23;97132.06;6003421;23;20333;-80
2023/07/20 08:38:10;;;;;;;1.77;1.40;;;;;;;26.61;35.81;97129.31;6005617;23;20297;-81
2023/07/20 08:40:40;;;;;;;1.58;1.38;;;;;;;26.75;35.51;97131.53;6010438;23;20220;-81
2023/07/20 08:43:06;;;;;;;2.20;1.30;;;;;;;26.69;36.61;97128.38;6030548;23;20249;-80
2023/07/20 08:45:33;;;;;;;1.50;1.40;;;;;;;26.78;35.42;97128.16;6033311;23;20375;-80
2023/07/20 08:48:00;;;;;;;1.58;1.15;;;;;;;26.57;35.58;97117.81;6042196;23;20253;-81
2023/07/20 08:50:31;;;;;;;2.88;1.42;;;;;;;26.50;35.16;97124.53;5985298;23;20170;-80
2023/07/20 08:52:57;;;;;;;1.67;1.25;;;;;;;26.52;35.70;97116.19;6018643;23;20163;-81
2023/07/20 08:55:24;;;;;;;2.05;1.60;;;;;;;26.63;35.78;97106.53;6040814;23;20310;-81
2023/07/20 08:57:56;;;;;;;2.08;1.52;;;;;;;27.00;34.14;97124.78;6007867;23;20254;-81
2023/07/20 09:00:23;;;;;;;1.70;1.40;;;;;;;27.12;33.83;97123.09;6039274;23;20243;-82
2023/07/20 09:02:53;;;;;;;2.30;1.45;;;;;;;27.23;34.23;97130.16;5985124;23;20283;-81
2023/07/20 09:05:19;;;;;;;1.45;1.20;;;;;;;27.21;32.78;97126.28;6048960;23;20192;-81
2023/07/20 09:07:45;;;;;;;3.45;1.50;;;;;;;26.67;34.58;97111.94;5990709;23;20342;-80
2023/07/20 09:10:11;;;;;;;1.52;1.38;;;;;;;26.52;34.23;97127.63;5991260;23;20287;-80
2023/07/20 09:12:38;;;;;;;1.65;1.27;;;;;;;26.12;35.49;97120.69;6010585;23;20203;-81
2023/07/20 09:15:04;;;;;;;1.67;1.38;;;;;;;25.97;36.21;97118.81;6030584;23;20336;-80
2023/07/20 09:17:30;;;;;;;9.63;3.33;;;;;;;26.30;35.95;97126.44;6012527;23;20128;-80
2023/07/20 09:19:55;;;;;;;2.03;1.75;;;;;;;26.38;34.90;97119.34;6070309;23;20337;-80
2023/07/20 09:22:20;;;;;;;2.63;1.45;;;;;;;26.57;34.31;97123.91;6021006;23;20390;-80
2023/07/20 09:24:46;;;;;;;2.28;1.30;;;;;;;26.66;34.97;97115.72;5986562;23;20226;-80
2023/07/20 09:27:12;;;;;;;1.63;1.40;;;;;;;27.09;34.15;97128.00;6010130;23;20190;-80
2023/07/20 09:29:51;;;;;;;1.70;1.40;;;;;;;27.60;32.59;97124.31;6051511;23;20345;-81
2023/07/20 09:32:21;;;;;;;2.30;1.60;;;;;;;27.37;33.74;97127.00;6020586;23;20183;-82
2023/07/20 09:34:46;;;;;;;2.85;1.70;;;;;;;27.36;33.40;97122.78;6047114;23;20079;-81
2023/07/20 09:37:12;;;;;;;2.67;1.92;;;;;;;27.26;34.07;97131.34;6020396;23;20230;-82
2023/07/20 09:39:44;;;;;;;2.70;1.60;;;;;;;27.18;34.26;97127.78;6031242;23;20151;-80
2023/07/20 09:42:12;;;;;;;1.98;1.73;;;;;;;27.17;33.97;97120.88;6040033;23;20408;-80
2023/07/20 09:44:38;;;;;;;1.90;1.80;;;;;;;27.34;34.05;97117.00;5984666;23;20219;-83
2023/07/20 09:47:04;;;;;;;3.42;2.30;;;;;;;27.73;34.77;97108.84;6010837;23;20278;-79
2023/07/20 09:49:29;;;;;;;2.10;1.73;;;;;;;27.97;32.94;97112.31;6024324;23;20253;-81
2023/07/20 09:51:55;;;;;;;2.90;1.60;;;;;;;27.75;32.51;97117.28;5996500;23;20208;-80
2023/07/20 09:54:21;;;;;;;1.55;1.45;;;;;;;27.43;32.39;97104.16;6002806;23;20406;-81
2023/07/20 09:56:48;;;;;;;2.38;1.75;;;;;;;27.38;32.91;97112.47;6002020;23;20245;-83
2023/07/20 09:59:14;;;;;;;1.75;1.65;;;;;;;27.24;33.31;97109.53;6023382;23;20155;-81
2023/07/20 10:01:41;;;;;;;2.35;1.58;;;;;;;27.38;32.52;97106.38;6022969;23;20307;-81
2023/07/20 10:04:09;;;;;;;2.03;1.80;;;;;;;27.60;32.68;97107.50;6048449;23;20246;-81
2023/07/20 10:06:36;;;;;;;1.90;1.70;;;;;;;27.77;32.08;97101.66;6023805;23;20236;-81
2023/07/20 10:09:03;;;;;;;2.42;1.80;;;;;;;27.97;33.16;97101.59;6018581;23;20018;-83
2023/07/20 10:11:35;;;;;;;1.65;1.55;;;;;;;28.00;33.65;97098.97;5974010;23;20200;-83
2023/07/20 10:14:05;;;;;;;1.65;1.55;;;;;;;28.33;30.93;97099.41;5893238;24;20187;-83
2023/07/20 10:16:47;;;;;;;3.40;2.00;;;;;;;28.39;31.89;97092.59;5990158;23;20121;-82
2023/07/20 10:19:16;;;;;;;2.33;2.10;;;;;;;28.58;31.18;97097.84;6001519;23;20196;-82
2023/07/20 10:21:44;;;;;;;3.75;1.88;;;;;;;28.42;31.99;97089.19;5867929;23;20423;-81
2023/07/20 10:24:11;;;;;;;3.58;1.80;;;;;;;28.53;30.90;97098.13;5965445;23;20424;-82
2023/07/20 10:26:37;;;;;;;2.97;1.40;;;;;;;28.57;29.93;97087.47;5967763;23;20341;-83
2023/07/20 10:29:03;;;;;;;2.08;1.77;;;;;;;28.48;29.91;97082.38;6006725;23;20283;-81
2023/07/20 10:31:28;;;;;;;1.92;1.52;;;;;;;28.47;29.71;97091.53;5992409;23;20157;-81
2023/07/20 10:33:57;;;;;;;1.63;1.52;;;;;;;28.36;29.50;97071.88;5997461;23;20350;-81
2023/07/20 10:36:29;;;;;;;2.00;1.67;;;;;;;27.96;31.48;97078.63;5983428;23;20079;-81
2023/07/20 10:38:56;;;;;;;2.75;1.98;;;;;;;27.71;31.45;97080.91;5869397;23;20295;-82
2023/07/20 10:41:29;;;;;;;1.92;1.52;;;;;;;27.37;31.20;97078.09;5866689;23;20539;-82
2023/07/20 10:44:05;;;;;;;2.97;2.10;;;;;;;27.76;31.58;97081.41;5864413;23;20226;-81
2023/07/20 10:46:40;;;;;;;1.83;1.55;;;;;;;28.38;30.43;97077.66;5963824;23;20168;-81
2023/07/20 10:49:07;;;;;;;2.75;1.70;;;;;;;28.32;28.81;97055.78;5869536;23;20183;-81
2023/07/20 10:51:57;;;;;;;2.45;2.28;;;;;;;28.49;29.80;97065.16;5975748;23;20215;-82
2023/07/20 10:54:22;;;;;;;1.75;1.60;;;;;;;28.67;29.64;97062.72;5921781;23;20361;-82
2023/07/20 10:56:47;;;;;;;2.30;1.30;;;;;;;29.14;28.73;97055.13;5902880;23;20016;-81
2023/07/20 10:59:31;;;;;;;2.00;1.60;;;;;;;29.61;28.21;97045.56;5968183;23;20220;-83
2023/07/20 11:02:02;;;;;;;1.50;1.40;;;;;;;29.94;28.39;97043.88;5897791;23;20240;-81
2023/07/20 11:04:45;;;;;;;2.38;1.73;;;;;;;30.34;27.12;97052.13;6033591;23;20184;-82
2023/07/20 11:07:16;;;;;;;2.33;1.50;;;;;;;30.18;27.00;97044.41;5895203;23;20232;-80
2023/07/20 11:09:42;;;;;;;1.70;1.60;;;;;;;29.22;28.58;97051.41;5937272;23;20202;-83
2023/07/20 11:12:15;;;;;;;2.00;1.90;;;;;;;29.03;28.70;97052.38;5947085;23;20190;-81
2023/07/20 11:14:54;;;;;;;2.25;1.90;;;;;;;28.72;30.60;97073.13;5927659;23;20120;-82
2023/07/20 11:17:22;;;;;;;2.17;1.95;;;;;;;28.50;30.32;97064.03;5933485;23;20214;-80
2023/07/20 11:19:55;;;;;;;2.38;2.10;;;;;;;28.42;29.90;97057.03;5927774;23;20163;-82
2023/07/20 11:22:21;;;;;;;2.35;1.77;;;;;;;28.79;28.92;97061.69;5920244;23;20165;-80
2023/07/20 11:24:48;;;;;;;1.60;1.50;;;;;;;29.03;28.77;97046.22;5940808;23;20220;-81
2023/07/20 11:27:14;;;;;;;1.40;1.30;;;;;;;29.33;28.22;97041.53;5892060;23;20153;-83
2023/07/20 11:29:39;;;;;;;2.47;2.08;;;;;;;29.24;28.76;97025.00;5926692;23;20409;-82
2023/07/20 11:34:39;;;;;;;2.97;1.90;;;;;;;28.92;27.93;97022.00;5973811;23;20168;-82
2023/07/20 11:37:05;;;;;;;2.60;2.40;;;;;;;28.81;28.39;97013.09;6058174;23;20244;-82